Time;durP1;ratioP1;P1;durP2;ratioP2;P2;SDS_P1;SDS_P2;PMS_P1;PMS_P2;Temp;Humidity;BMP_temperature;BMP_pressure;BME280_temperature;BME280_humidity;BME280_pressure;Samples;Min_cycle;Max_cycle;Signal;HPM_P1;HPM_P2
2022/07/26 00:01:02;;;;;;;0.70;0.10;;;;;;;;;;5069058;28;20976;-74
2022/07/26 00:03:32;;;;;;;0.70;0.10;;;;;;;;;;5057262;28;20470;-74
2022/07/26 00:06:00;;;;;;;0.70;0.20;;;24.70;99.90;;;;;;5050006;28;21036;-75
2022/07/26 00:08:28;;;;;;;0.70;0.20;;;24.70;99.90;;;;;;5051461;28;20818;-75
2022/07/26 00:10:56;;;;;;;0.70;0.10;;;24.70;99.90;;;;;;5066890;28;20453;-75
2022/07/26 00:13:24;;;;;;;0.70;0.20;;;24.70;99.90;;;;;;5069964;28;21100;-74
2022/07/26 00:15:57;;;;;;;0.70;0.20;;;24.70;99.90;;;;;;5071857;28;20529;-74
2022/07/26 00:18:25;;;;;;;0.70;0.10;;;24.70;99.90;;;;;;5072061;28;20433;-74
2022/07/26 00:20:54;;;;;;;0.70;0.10;;;24.70;99.90;;;;;;5072170;28;20475;-74
2022/07/26 00:23:22;;;;;;;0.70;0.13;;;24.70;99.90;;;;;;5072647;28;20462;-74
2022/07/26 00:25:50;;;;;;;0.70;0.10;;;24.70;99.90;;;;;;5072168;28;20446;-75
2022/07/26 00:28:18;;;;;;;0.70;0.10;;;24.70;99.90;;;;;;5065046;28;20481;-74
2022/07/26 00:30:46;;;;;;;0.70;0.10;;;24.70;99.90;;;;;;5067006;28;20477;-74
2022/07/26 00:33:14;;;;;;;0.70;0.10;;;24.70;99.90;;;;;;5072229;28;20541;-76
2022/07/26 00:35:42;;;;;;;0.70;0.20;;;24.70;99.90;;;;;;5072263;28;20452;-74
2022/07/26 00:38:11;;;;;;;0.70;0.10;;;24.60;99.90;;;;;;5072171;28;20452;-73
2022/07/26 00:40:39;;;;;;;0.70;0.10;;;24.60;99.90;;;;;;5059106;28;20478;-73
2022/07/26 00:43:07;;;;;;;0.70;0.20;;;24.50;99.90;;;;;;5052278;28;20466;-73
2022/07/26 00:45:35;;;;;;;0.70;0.10;;;24.50;99.90;;;;;;5052025;28;21010;-74
2022/07/26 00:48:04;;;;;;;0.70;0.10;;;24.50;99.90;;;;;;5052010;28;20431;-74
2022/07/26 00:50:32;;;;;;;0.70;0.13;;;24.50;99.90;;;;;;5064569;28;20452;-75
2022/07/26 00:53:01;;;;;;;0.70;0.10;;;24.40;99.90;;;;;;5072032;28;20470;-74
2022/07/26 00:55:30;;;;;;;0.70;0.20;;;24.40;99.90;;;;;;5072579;28;20441;-74
2022/07/26 00:58:00;;;;;;;0.70;0.20;;;24.30;99.90;;;;;;5072058;28;20774;-74
2022/07/26 01:00:28;;;;;;;0.70;0.20;;;24.30;99.90;;;;;;5063083;28;20450;-74
2022/07/26 01:02:57;;;;;;;0.70;0.10;;;24.30;99.90;;;;;;5051874;28;20458;-75
2022/07/26 01:05:25;;;;;;;0.70;0.10;;;24.30;99.90;;;;;;5052057;28;20454;-74
2022/07/26 01:07:55;;;;;;;0.70;0.20;;;24.30;99.90;;;;;;5053037;28;20462;-75
2022/07/26 01:10:22;;;;;;;0.70;0.10;;;24.30;99.90;;;;;;5063545;28;20441;-75
2022/07/26 01:12:52;;;;;;;0.70;0.20;;;24.30;99.90;;;;;;5075501;28;20475;-75
2022/07/26 01:15:20;;;;;;;0.70;0.10;;;24.30;99.90;;;;;;5075436;28;20442;-75
2022/07/26 01:17:48;;;;;;;0.70;0.10;;;24.40;99.90;;;;;;5075366;28;20456;-75
2022/07/26 01:20:16;;;;;;;0.70;0.20;;;24.40;99.90;;;;;;5066360;28;20481;-75
2022/07/26 01:22:45;;;;;;;0.70;0.20;;;24.30;99.90;;;;;;5054805;28;20482;-75
2022/07/26 01:25:13;;;;;;;0.70;0.20;;;24.30;99.90;;;;;;5054983;28;20961;-75
2022/07/26 01:27:42;;;;;;;0.70;0.20;;;24.30;99.90;;;;;;5051407;28;20456;-74
2022/07/26 01:30:12;;;;;;;0.70;0.10;;;24.30;99.90;;;;;;5038168;28;20781;-74
2022/07/26 01:32:40;;;;;;;0.70;0.10;;;24.20;99.90;;;;;;5074692;28;20465;-76
2022/07/26 01:35:09;;;;;;;0.70;0.10;;;24.20;99.90;;;;;;5075552;28;20457;-74
2022/07/26 01:37:37;;;;;;;0.70;0.20;;;24.20;99.90;;;;;;5075368;28;20488;-75
2022/07/26 01:40:08;;;;;;;0.70;0.20;;;24.20;99.90;;;;;;5074071;28;20446;-74
2022/07/26 01:42:39;;;;;;;0.70;0.10;;;24.20;99.90;;;;;;5055096;28;20494;-75
2022/07/26 01:45:08;;;;;;;0.70;0.10;;;24.20;99.90;;;;;;5055133;28;20442;-73
2022/07/26 01:47:36;;;;;;;0.70;0.17;;;24.10;99.90;;;;;;5054880;28;20439;-74
2022/07/26 01:50:06;;;;;;;0.70;0.10;;;24.10;99.90;;;;;;5055095;28;20576;-74
2022/07/26 01:52:34;;;;;;;0.70;0.13;;;24.10;99.90;;;;;;5061144;28;20561;-75
2022/07/26 01:55:02;;;;;;;0.70;0.20;;;24.10;99.90;;;;;;5074840;28;20807;-73
2022/07/26 01:57:31;;;;;;;0.70;0.20;;;24.10;99.90;;;;;;5074515;28;20830;-74
2022/07/26 01:59:59;;;;;;;0.70;0.10;;;24.10;99.90;;;;;;5075056;28;20442;-74
2022/07/26 02:02:28;;;;;;;0.70;0.10;;;24.10;99.90;;;;;;5075183;28;20485;-73
2022/07/26 02:05:02;;;;;;;0.70;0.10;;;24.10;99.90;;;;;;5063572;28;20465;-74
2022/07/26 02:07:32;;;;;;;0.70;0.10;;;24.10;99.90;;;;;;5051218;28;20541;-74
2022/07/26 02:10:00;;;;;;;0.70;0.10;;;26.50;99.90;;;;;;5054524;28;20465;-73
2022/07/26 02:12:28;;;;;;;0.70;0.20;;;24.00;99.90;;;;;;5074113;28;20455;-74
2022/07/26 02:14:58;;;;;;;0.70;0.10;;;24.00;99.90;;;;;;5075269;28;20426;-73
2022/07/26 02:17:26;;;;;;;0.70;0.10;;;24.00;99.90;;;;;;5060214;28;20457;-73
2022/07/26 02:19:54;;;;;;;0.70;0.20;;;23.90;99.90;;;;;;5053821;28;20447;-73
2022/07/26 02:22:22;;;;;;;0.70;0.20;;;23.90;99.90;;;;;;5054843;28;20488;-75
2022/07/26 02:24:50;;;;;;;0.70;0.10;;;24.00;99.90;;;;;;5054551;28;20453;-74
2022/07/26 02:27:18;;;;;;;0.70;0.10;;;23.90;99.90;;;;;;5054262;28;20446;-74
2022/07/26 02:29:46;;;;;;;0.70;0.10;;;23.90;99.90;;;;;;5034777;28;20450;-74
2022/07/26 02:32:15;;;;;;;0.70;0.10;;;23.90;99.90;;;;;;5033943;28;20460;-74
2022/07/26 02:34:43;;;;;;;0.70;0.10;;;23.90;99.90;;;;;;5033697;28;20454;-74
2022/07/26 02:37:11;;;;;;;0.70;0.10;;;23.90;99.90;;;;;;5033765;28;20534;-74
2022/07/26 02:39:39;;;;;;;0.70;0.20;;;23.90;99.90;;;;;;5050624;28;20455;-74
2022/07/26 02:42:07;;;;;;;0.70;0.20;;;23.90;99.90;;;;;;5072254;28;20478;-73
2022/07/26 02:44:35;;;;;;;0.70;0.10;;;23.80;99.90;;;;;;5073976;28;20456;-74
2022/07/26 02:47:03;;;;;;;0.70;0.10;;;23.70;99.90;;;;;;5073790;28;20465;-73
2022/07/26 02:49:32;;;;;;;0.70;0.10;;;23.70;99.90;;;;;;5073607;28;20446;-73
2022/07/26 02:52:04;;;;;;;0.70;0.10;;;23.70;99.90;;;;;;5073836;28;20485;-73
2022/07/26 02:54:32;;;;;;;0.70;0.10;;;23.70;99.90;;;;;;5070540;28;20538;-74
2022/07/26 02:56:59;;;;;;;0.70;0.10;;;23.70;99.90;;;;;;5053321;28;20446;-76
2022/07/26 02:59:27;;;;;;;0.70;0.10;;;23.60;99.90;;;;;;5053330;28;20849;-74
2022/07/26 03:01:55;;;;;;;0.70;0.10;;;23.60;99.90;;;;;;5053515;28;20497;-74
2022/07/26 03:04:23;;;;;;;0.70;0.20;;;23.60;99.90;;;;;;5053781;28;20516;-74
2022/07/26 03:06:52;;;;;;;0.70;0.20;;;23.60;99.90;;;;;;5053505;28;20449;-75
2022/07/26 03:09:20;;;;;;;0.70;0.10;;;23.60;99.90;;;;;;5054095;28;20462;-74
2022/07/26 03:11:48;;;;;;;0.70;0.10;;;23.60;99.90;;;;;;5055821;28;20461;-74
2022/07/26 03:14:16;;;;;;;0.70;0.20;;;23.60;99.90;;;;;;5053833;28;20457;-74
2022/07/26 03:16:44;;;;;;;0.70;0.20;;;23.50;99.90;;;;;;5053468;28;20963;-74
2022/07/26 03:19:12;;;;;;;0.70;0.20;;;23.50;99.90;;;;;;5053161;28;20447;-74
2022/07/26 03:21:40;;;;;;;0.70;0.10;;;23.50;99.90;;;;;;5052767;28;20941;-75
2022/07/26 03:24:09;;;;;;;0.70;0.10;;;23.60;99.90;;;;;;5052922;28;21113;-75
2022/07/26 03:26:38;;;;;;;0.70;0.20;;;23.50;99.90;;;;;;5053117;28;20573;-75
2022/07/26 03:29:06;;;;;;;0.70;0.20;;;23.60;99.90;;;;;;5039445;28;20842;-75
2022/07/26 03:31:35;;;;;;;0.70;0.10;;;23.50;99.90;;;;;;5032603;28;21435;-74
2022/07/26 03:34:03;;;;;;;0.70;0.10;;;23.50;99.90;;;;;;5044880;28;20449;-75
2022/07/26 03:36:31;;;;;;;0.70;0.20;;;23.50;99.90;;;;;;5052653;28;20505;-75
2022/07/26 03:38:59;;;;;;;0.70;0.10;;;23.40;99.90;;;;;;5052478;28;20525;-75
2022/07/26 03:41:30;;;;;;;0.70;0.10;;;23.40;99.90;;;;;;5052748;28;20454;-75
2022/07/26 03:43:58;;;;;;;0.70;0.20;;;;;;;;;;5052841;28;20490;-74
2022/07/26 03:46:26;;;;;;;0.70;0.20;;;23.40;99.90;;;;;;5052692;28;20446;-76
2022/07/26 03:48:54;;;;;;;0.70;0.10;;;23.30;99.90;;;;;;5052187;28;20504;-74
2022/07/26 03:51:22;;;;;;;0.70;0.20;;;23.30;99.90;;;;;;5052439;28;20930;-75
2022/07/26 03:53:51;;;;;;;0.70;0.20;;;23.30;99.90;;;;;;5053162;28;20470;-75
2022/07/26 03:56:34;;;;;;;0.70;0.20;;;23.30;99.90;;;;;;5053738;28;20454;-73
2022/07/26 03:59:07;;;;;;;0.70;0.10;;;23.20;99.90;;;;;;5052912;28;20450;-75
2022/07/26 04:01:35;;;;;;;0.70;0.10;;;23.10;99.90;;;;;;5052713;28;20453;-74
2022/07/26 04:04:04;;;;;;;0.70;0.20;;;23.10;99.90;;;;;;5052305;28;20489;-74
2022/07/26 04:06:36;;;;;;;0.70;0.20;;;23.10;99.90;;;;;;5053775;28;20447;-76
2022/07/26 04:09:05;;;;;;;0.70;0.10;;;23.10;99.90;;;;;;5060603;28;20446;-76
2022/07/26 04:11:34;;;;;;;0.70;0.20;;;;;;;;;;5072250;28;20433;-74
2022/07/26 04:14:03;;;;;;;0.70;0.20;;;23.10;99.90;;;;;;5072225;28;20537;-74
2022/07/26 04:16:31;;;;;;;0.70;0.10;;;23.10;99.90;;;;;;5072654;28;20947;-74
2022/07/26 04:18:59;;;;;;;0.70;0.10;;;23.10;99.90;;;;;;5072605;28;20446;-75
2022/07/26 04:21:27;;;;;;;0.70;0.10;;;23.00;99.90;;;;;;5073090;28;20452;-75
2022/07/26 04:23:55;;;;;;;0.70;0.20;;;23.00;99.90;;;;;;5072829;28;20976;-75
2022/07/26 04:26:23;;;;;;;0.70;0.20;;;23.00;99.90;;;;;;5054521;28;20534;-76
2022/07/26 04:28:51;;;;;;;0.70;0.20;;;23.00;99.90;;;;;;5040823;28;20448;-76
2022/07/26 04:31:20;;;;;;;0.70;0.10;;;23.00;99.90;;;;;;5032533;28;20534;-75
2022/07/26 04:33:48;;;;;;;0.70;0.10;;;22.90;99.90;;;;;;5032986;28;20509;-75
2022/07/26 04:36:16;;;;;;;0.70;0.10;;;23.00;99.90;;;;;;5032966;28;20474;-74
2022/07/26 04:38:45;;;;;;;0.70;0.10;;;;;;;;;;5037310;28;20455;-74
2022/07/26 04:41:13;;;;;;;0.70;0.10;;;23.00;99.90;;;;;;5052819;28;20640;-75
2022/07/26 04:43:41;;;;;;;0.70;0.10;;;22.90;99.90;;;;;;5054844;28;20578;-76
2022/07/26 04:46:09;;;;;;;0.70;0.20;;;23.00;99.90;;;;;;5056343;28;20533;-76
2022/07/26 04:48:38;;;;;;;0.70;0.20;;;23.00;99.90;;;;;;5056538;28;20446;-76
2022/07/26 04:51:06;;;;;;;0.70;0.10;;;23.00;99.90;;;;;;5057084;28;20442;-76
2022/07/26 04:53:34;;;;;;;0.70;0.20;;;23.00;99.90;;;;;;5057258;28;20458;-76
2022/07/26 04:56:02;;;;;;;0.70;0.20;;;22.90;99.90;;;;;;5071830;28;20445;-76
2022/07/26 04:58:30;;;;;;;0.70;0.10;;;22.70;99.90;;;;;;5077574;28;20496;-77
2022/07/26 05:00:59;;;;;;;0.70;0.20;;;22.80;99.90;;;;;;5076166;28;20437;-76
2022/07/26 05:03:39;;;;;;;0.70;0.20;;;22.70;99.90;;;;;;5076505;28;20527;-74
2022/07/26 05:06:07;;;;;;;0.70;0.10;;;22.60;99.90;;;;;;5058028;28;20450;-74
2022/07/26 05:08:35;;;;;;;0.70;0.10;;;22.50;99.90;;;;;;5060147;28;20517;-76
2022/07/26 05:11:03;;;;;;;0.70;0.20;;;;;;;;;;5065576;28;20473;-75
2022/07/26 05:13:31;;;;;;;0.90;0.43;;;22.40;99.90;;;;;;5063623;28;20637;-77
2022/07/26 05:15:59;;;;;;;0.70;0.10;;;22.30;99.90;;;;;;5061243;28;20443;-75
2022/07/26 05:18:29;;;;;;;1.27;0.40;;;22.40;99.90;;;;;;5061211;28;20506;-76
2022/07/26 05:21:13;;;;;;;0.70;0.20;;;22.40;99.90;;;;;;5061588;28;20458;-78
2022/07/26 05:23:41;;;;;;;1.23;0.47;;;22.40;99.90;;;;;;5060553;28;20482;-76
2022/07/26 05:26:11;;;;;;;0.70;0.10;;;;;;;;;;5063280;28;20438;-78
2022/07/26 05:28:39;;;;;;;0.70;0.20;;;22.40;99.90;;;;;;5050229;28;20446;-77
2022/07/26 05:31:07;;;;;;;0.70;0.10;;;22.40;99.90;;;;;;5038900;28;20905;-76
2022/07/26 05:33:35;;;;;;;0.70;0.10;;;22.50;99.90;;;;;;5057819;28;21004;-74
2022/07/26 05:36:04;;;;;;;0.70;0.20;;;22.50;99.90;;;;;;5066183;28;20533;-76
2022/07/26 05:38:33;;;;;;;0.70;0.20;;;22.50;99.90;;;;;;5079688;28;20446;-76
2022/07/26 05:41:01;;;;;;;0.70;0.20;;;22.50;99.90;;;;;;5083621;28;20446;-76
2022/07/26 05:43:30;;;;;;;0.70;0.30;;;22.50;99.90;;;;;;5085187;28;20516;-75
2022/07/26 05:46:10;;;;;;;0.70;0.20;;;22.50;99.90;;;;;;5083637;28;20443;-74
2022/07/26 05:48:38;;;;;;;0.70;0.30;;;22.30;99.90;;;;;;5080938;28;20448;-73
2022/07/26 05:51:06;;;;;;;0.70;0.20;;;;;;;;;;5082337;28;20588;-76
2022/07/26 05:53:36;;;;;;;0.70;0.17;;;22.00;99.90;;;;;;5071837;28;20471;-73
2022/07/26 05:56:05;;;;;;;0.70;0.10;;;21.00;99.90;;;;;;5065652;28;20528;-74
2022/07/26 05:58:33;;;;;;;0.70;0.20;;;22.00;99.90;;;;;;5074740;28;20442;-72
2022/07/26 06:01:00;;;;;;;0.70;0.20;;;22.00;99.90;;;;;;5058674;28;20450;-73
2022/07/26 06:03:30;;;;;;;0.70;0.20;;;22.00;99.90;;;;;;5056342;28;20513;-74
2022/07/26 06:05:59;;;;;;;0.70;0.10;;;22.10;99.90;;;;;;5073980;28;20444;-74
2022/07/26 06:08:27;;;;;;;0.70;0.10;;;22.20;99.90;;;;;;5077467;28;20528;-72
2022/07/26 06:10:57;;;;;;;0.70;0.17;;;22.20;99.90;;;;;;5077934;28;20450;-73
2022/07/26 06:13:27;;;;;;;0.70;0.10;;;22.30;99.90;;;;;;5075701;28;20548;-73
2022/07/26 06:15:55;;;;;;;0.70;0.10;;;22.30;99.90;;;;;;5068701;28;20645;-73
2022/07/26 06:18:23;;;;;;;0.70;0.10;;;22.30;99.90;;;;;;5077591;28;20456;-73
2022/07/26 06:20:51;;;;;;;0.70;0.10;;;22.30;99.90;;;;;;5069651;28;20473;-75
2022/07/26 06:23:19;;;;;;;0.70;0.10;;;22.50;99.90;;;;;;5056310;28;20470;-73
2022/07/26 06:26:03;;;;;;;0.70;0.30;;;22.60;99.90;;;;;;5050945;28;20426;-74
2022/07/26 06:28:32;;;;;;;0.80;0.30;;;22.40;99.90;;;;;;5042119;28;20439;-73
2022/07/26 06:31:00;;;;;;;0.70;0.37;;;22.40;99.90;;;;;;5033883;28;20799;-73
2022/07/26 06:33:28;;;;;;;0.70;0.20;;;;;;;;;;5033775;28;20464;-73
2022/07/26 06:35:56;;;;;;;0.70;0.20;;;22.20;99.90;;;;;;5048420;28;20455;-73
2022/07/26 06:38:24;;;;;;;0.70;0.20;;;22.20;99.90;;;;;;5053607;28;20452;-72
2022/07/26 06:40:52;;;;;;;0.70;0.20;;;22.10;99.90;;;;;;5053262;28;20442;-73
2022/07/26 06:43:21;;;;;;;0.70;0.20;;;22.10;99.90;;;;;;5053635;28;20886;-72
2022/07/26 06:45:49;;;;;;;0.70;0.20;;;22.20;99.90;;;;;;5039923;28;20558;-73
2022/07/26 06:48:18;;;;;;;1.80;0.43;;;22.20;99.90;;;;;;5051564;28;20442;-73
2022/07/26 06:50:46;;;;;;;0.70;0.10;;;22.10;99.90;;;;;;5053888;28;20482;-76
2022/07/26 06:53:14;;;;;;;1.00;0.57;;;22.10;99.90;;;;;;5054000;28;20501;-73
2022/07/26 06:55:43;;;;;;;4.30;0.40;;;22.10;99.90;;;;;;5053800;28;20447;-73
2022/07/26 06:58:12;;;;;;;0.70;0.10;;;21.90;99.90;;;;;;5052637;28;20442;-73
2022/07/26 07:00:42;;;;;;;0.70;0.33;;;22.50;99.90;;;;;;5053002;28;20971;-72
2022/07/26 07:03:10;;;;;;;0.70;0.17;;;21.90;99.90;;;;;;5053192;28;20466;-75
2022/07/26 07:05:38;;;;;;;0.70;0.10;;;21.90;99.90;;;;;;5052286;28;20486;-73
2022/07/26 07:08:07;;;;;;;0.70;0.30;;;22.00;99.90;;;;;;5053000;28;20961;-74
2022/07/26 07:10:37;;;;;;;0.70;0.20;;;21.90;99.90;;;;;;5053181;28;20500;-73
2022/07/26 07:13:05;;;;;;;0.70;0.20;;;22.10;99.90;;;;;;5052920;28;20477;-73
2022/07/26 07:15:33;;;;;;;0.70;0.10;;;22.20;99.90;;;;;;5053408;28;20972;-73
2022/07/26 07:18:02;;;;;;;0.70;0.10;;;22.30;99.90;;;;;;5051689;28;20423;-73
2022/07/26 07:20:30;;;;;;;0.70;0.10;;;22.40;99.90;;;;;;5050145;28;20447;-74
2022/07/26 07:22:58;;;;;;;0.70;0.20;;;22.30;99.90;;;;;;5052628;28;20462;-73
2022/07/26 07:25:26;;;;;;;1.83;0.70;;;22.20;99.90;;;;;;5052732;28;20569;-73
2022/07/26 07:27:57;;;;;;;0.90;0.27;;;22.00;99.90;;;;;;5049013;28;20772;-73
2022/07/26 07:30:26;;;;;;;0.70;0.20;;;22.00;99.90;;;;;;5051218;28;20461;-73
2022/07/26 07:32:55;;;;;;;0.70;0.20;;;22.00;99.90;;;;;;5052427;28;21019;-73
2022/07/26 07:35:24;;;;;;;0.70;0.10;;;22.30;99.90;;;;;;5052505;28;20443;-73
2022/07/26 07:38:00;;;;;;;1.33;0.73;;;22.30;99.90;;;;;;5070474;28;20948;-74
2022/07/26 07:40:28;;;;;;;0.70;0.30;;;22.60;99.90;;;;;;5072751;28;20445;-74
2022/07/26 07:42:57;;;;;;;0.80;0.40;;;22.70;99.90;;;;;;5072803;28;20462;-73
2022/07/26 07:45:25;;;;;;;0.70;0.20;;;22.70;99.90;;;;;;5063804;28;20486;-73
2022/07/26 07:47:53;;;;;;;0.70;0.20;;;22.60;99.90;;;;;;5049185;28;20455;-72
2022/07/26 07:50:21;;;;;;;0.70;0.17;;;22.60;99.90;;;;;;5056588;28;20568;-74
2022/07/26 07:52:56;;;;;;;0.70;0.20;;;22.90;99.90;;;;;;5073132;28;20473;-73
2022/07/26 07:55:26;;;;;;;0.70;0.17;;;23.00;99.90;;;;;;5072087;28;20448;-71
2022/07/26 07:58:14;;;;;;;0.70;0.40;;;23.00;99.90;;;;;;5072180;28;20483;-72
2022/07/26 08:00:44;;;;;;;0.70;0.13;;;23.10;99.90;;;;;;5057375;28;20439;-71
2022/07/26 08:03:13;;;;;;;0.80;0.37;;;23.10;99.90;;;;;;5052441;28;21016;-72
2022/07/26 08:05:46;;;;;;;0.70;0.20;;;23.10;99.90;;;;;;5054426;28;20516;-73
2022/07/26 08:08:19;;;;;;;0.70;0.20;;;23.10;99.90;;;;;;5055856;28;20453;-71
2022/07/26 08:10:50;;;;;;;0.70;0.20;;;23.10;99.90;;;;;;5054821;28;20446;-73
2022/07/26 08:13:20;;;;;;;0.70;0.10;;;23.20;99.90;;;;;;5048741;28;20486;-72
2022/07/26 08:15:49;;;;;;;0.70;0.10;;;23.30;99.90;;;;;;5051808;28;20446;-73
2022/07/26 08:18:17;;;;;;;0.70;0.20;;;23.30;99.90;;;;;;5054791;28;20621;-74
2022/07/26 08:20:50;;;;;;;0.70;0.20;;;23.20;99.90;;;;;;5055873;28;20448;-72
2022/07/26 08:23:20;;;;;;;0.70;0.10;;;23.20;99.90;;;;;;5055936;28;20553;-72
2022/07/26 08:25:48;;;;;;;27.07;0.73;;;23.30;99.90;;;;;;5055865;28;20826;-74
2022/07/26 08:28:26;;;;;;;0.70;0.10;;;23.30;99.90;;;;;;5055823;28;20438;-71
2022/07/26 08:31:14;;;;;;;0.70;0.10;;;23.40;99.90;;;;;;5056164;28;20839;-74
2022/07/26 08:33:42;;;;;;;0.70;0.20;;;23.60;99.90;;;;;;5059753;28;20485;-74
2022/07/26 08:36:14;;;;;;;0.70;0.10;;;23.60;99.90;;;;;;5057393;28;20439;-75
2022/07/26 08:38:44;;;;;;;0.70;0.20;;;23.60;99.90;;;;;;5056925;28;20518;-75
2022/07/26 08:41:16;;;;;;;0.70;0.20;;;23.50;99.90;;;;;;5058977;28;20893;-74
2022/07/26 08:43:44;;;;;;;0.70;0.10;;;23.50;99.90;;;;;;5056387;28;20465;-74
2022/07/26 08:46:24;;;;;;;0.70;0.10;;;23.50;99.90;;;;;;5056510;28;20484;-74
2022/07/26 08:48:55;;;;;;;0.70;0.20;;;23.70;99.90;;;;;;5056731;28;20437;-74
2022/07/26 08:51:24;;;;;;;0.70;0.20;;;24.00;99.90;;;;;;5056548;28;20449;-73
2022/07/26 08:53:55;;;;;;;0.70;0.20;;;24.00;99.90;;;;;;5055871;28;20869;-74
2022/07/26 08:56:32;;;;;;;0.70;0.20;;;23.90;99.90;;;;;;5073843;28;20473;-74
2022/07/26 08:59:03;;;;;;;0.70;0.20;;;23.70;99.90;;;;;;5075633;28;20970;-70
2022/07/26 09:01:32;;;;;;;0.70;0.10;;;23.80;99.90;;;;;;5075427;28;21010;-69
2022/07/26 09:04:18;;;;;;;0.70;0.20;;;24.00;99.90;;;;;;5067085;28;20548;-70
2022/07/26 09:07:01;;;;;;;0.70;0.10;;;24.00;99.90;;;;;;5051313;28;20474;-69
2022/07/26 09:09:32;;;;;;;0.70;0.20;;;24.30;99.90;;;;;;5055846;28;20450;-69
2022/07/26 09:12:14;;;;;;;0.80;0.40;;;24.30;99.90;;;;;;5055274;28;20474;-68
2022/07/26 09:14:45;;;;;;;0.70;0.20;;;24.40;99.90;;;;;;5054522;28;20438;-70
2022/07/26 09:17:14;;;;;;;0.70;0.20;;;24.30;99.90;;;;;;5052016;28;20434;-69
2022/07/26 09:19:43;;;;;;;0.70;0.20;;;24.40;99.90;;;;;;5055001;28;20442;-68
2022/07/26 09:22:12;;;;;;;0.70;0.10;;;24.50;99.90;;;;;;5054767;28;20462;-68
2022/07/26 09:24:43;;;;;;;0.70;0.20;;;24.50;99.90;;;;;;5035048;28;20477;-68
2022/07/26 09:27:13;;;;;;;0.70;0.20;;;24.60;99.90;;;;;;5035135;28;20486;-70
2022/07/26 09:29:46;;;;;;;0.70;0.20;;;24.40;99.90;;;;;;5052044;28;20896;-71
2022/07/26 09:32:17;;;;;;;1.37;0.40;;;24.30;99.90;;;;;;5054854;28;20470;-69
2022/07/26 09:34:47;;;;;;;0.70;0.20;;;24.30;99.90;;;;;;5050594;28;20863;-68
2022/07/26 09:37:33;;;;;;;0.70;0.10;;;24.30;99.90;;;;;;5054118;28;20978;-70
2022/07/26 09:40:05;;;;;;;0.70;0.20;;;24.40;99.90;;;;;;5053766;28;20443;-69
2022/07/26 09:42:33;;;;;;;0.70;0.10;;;24.60;99.90;;;;;;5054015;28;20466;-69
2022/07/26 09:45:01;;;;;;;0.70;0.20;;;;;;;;;;5054412;28;20814;-68
2022/07/26 09:47:36;;;;;;;0.70;0.10;;;24.70;99.90;;;;;;5053450;28;20500;-70
2022/07/26 09:50:20;;;;;;;0.70;0.10;;;24.70;99.90;;;;;;5053840;28;20438;-68
2022/07/26 09:52:59;;;;;;;0.70;0.20;;;24.80;99.90;;;;;;5045643;28;20565;-69
2022/07/26 09:55:29;;;;;;;0.70;0.20;;;24.80;99.90;;;;;;5051805;28;20449;-69
2022/07/26 09:58:12;;;;;;;0.70;0.20;;;24.90;99.90;;;;;;5053964;28;20465;-68
2022/07/26 10:00:41;;;;;;;0.70;0.17;;;24.90;99.90;;;;;;5048551;28;20991;-69
2022/07/26 10:03:09;;;;;;;0.70;0.20;;;24.90;99.90;;;;;;5051993;28;20463;-68
2022/07/26 10:05:37;;;;;;;0.70;0.10;;;24.90;99.90;;;;;;5051357;28;20514;-71
2022/07/26 10:08:06;;;;;;;0.70;0.20;;;24.90;99.90;;;;;;5053510;28;20435;-71
2022/07/26 10:10:43;;;;;;;0.70;0.10;;;24.90;99.90;;;;;;5050854;28;20485;-70
2022/07/26 10:13:11;;;;;;;0.70;0.20;;;25.00;99.90;;;;;;5051193;28;21043;-71
2022/07/26 10:15:42;;;;;;;0.70;0.20;;;25.00;99.90;;;;;;5055275;28;20445;-71
2022/07/26 10:18:11;;;;;;;0.70;0.20;;;25.10;99.90;;;;;;5055260;28;20522;-70
2022/07/26 10:20:49;;;;;;;0.70;0.13;;;25.20;99.90;;;;;;5050435;28;20450;-69
2022/07/26 10:23:41;;;;;;;0.70;0.20;;;25.20;99.90;;;;;;5053042;28;20462;-70
2022/07/26 10:26:13;;;;;;;0.70;0.13;;;25.30;99.90;;;;;;5054228;28;20480;-74
2022/07/26 10:28:42;;;;;;;0.70;0.20;;;25.10;99.90;;;;;;5050973;28;20979;-74
2022/07/26 10:31:30;;;;;;;0.70;0.20;;;25.00;99.90;;;;;;5046370;28;20465;-74
2022/07/26 10:34:00;;;;;;;0.70;0.20;;;24.90;99.90;;;;;;5051285;28;20558;-75
2022/07/26 10:36:31;;;;;;;0.70;0.13;;;24.90;99.90;;;;;;5050279;28;20439;-74
2022/07/26 10:39:05;;;;;;;0.70;0.20;;;24.90;99.90;;;;;;5047851;28;20521;-75
2022/07/26 10:41:37;;;;;;;0.70;0.20;;;25.30;99.90;;;;;;5049840;28;20450;-74
2022/07/26 10:44:16;;;;;;;0.70;0.20;;;25.30;99.90;;;;;;5052627;28;20449;-74
2022/07/26 10:47:14;;;;;;;0.70;0.10;;;25.50;99.90;;;;;;5050353;28;20466;-76
2022/07/26 10:49:53;;;;;;;0.70;0.10;;;25.80;99.90;;;;;;5052807;28;20488;-77
2022/07/26 10:52:23;;;;;;;0.70;0.20;;;26.00;99.90;;;;;;5052707;28;20565;-77
2022/07/26 10:55:20;;;;;;;0.70;0.20;;;26.20;99.90;;;;;;5052038;28;20495;-77
2022/07/26 10:57:49;;;;;;;0.70;0.10;;;26.30;99.90;;;;;;5055527;28;20541;-79
2022/07/26 11:00:23;;;;;;;0.70;0.10;;;26.40;99.90;;;;;;5062874;28;20927;-77
2022/07/26 11:02:57;;;;;;;0.70;0.30;;;26.50;99.90;;;;;;5056048;28;20508;-77
2022/07/26 11:05:30;;;;;;;0.70;0.10;;;26.50;99.90;;;;;;5067255;28;20451;-77
2022/07/26 11:08:07;;;;;;;0.70;0.10;;;26.50;99.90;;;;;;5062410;28;20478;-77
2022/07/26 11:10:37;;;;;;;0.70;0.20;;;26.50;99.90;;;;;;5049999;28;20512;-76
2022/07/26 11:13:18;;;;;;;0.97;0.37;;;26.40;99.90;;;;;;5050183;28;20509;-76
2022/07/26 11:15:48;;;;;;;0.70;0.20;;;26.30;99.90;;;;;;5058153;28;20456;-76
2022/07/26 11:18:21;;;;;;;0.70;0.10;;;26.10;99.90;;;;;;5057147;28;20469;-72
2022/07/26 11:20:54;;;;;;;0.70;0.10;;;26.00;99.90;;;;;;5057955;28;20445;-72
2022/07/26 11:23:24;;;;;;;0.70;0.10;;;26.10;99.90;;;;;;5053142;28;20500;-72
2022/07/26 11:26:15;;;;;;;1.10;0.80;;;26.20;99.90;;;;;;5058377;28;20447;-73
2022/07/26 11:28:54;;;;;;;0.70;0.10;;;26.50;99.90;;;;;;5043265;28;20465;-72
2022/07/26 11:31:27;;;;;;;0.70;0.20;;;26.50;99.90;;;;;;5055434;28;20450;-72
2022/07/26 11:34:18;;;;;;;0.80;0.20;;;26.70;99.90;;;;;;5039735;28;20446;-72
2022/07/26 11:36:47;;;;;;;0.70;0.20;;;26.70;99.90;;;;;;5052535;28;20473;-72
2022/07/26 11:39:20;;;;;;;0.70;0.17;;;26.80;99.90;;;;;;5052657;28;20517;-72
2022/07/26 11:41:49;;;;;;;0.70;0.20;;;27.10;99.90;;;;;;5053970;28;21160;-72
2022/07/26 11:44:20;;;;;;;0.70;0.10;;;27.10;99.90;;;;;;5054008;28;20449;-72
2022/07/26 11:46:49;;;;;;;0.70;0.20;;;27.10;99.90;;;;;;5053833;28;20481;-72
2022/07/26 11:49:19;;;;;;;0.70;0.20;;;27.00;99.90;;;;;;5052934;28;20994;-72
2022/07/26 11:51:52;;;;;;;0.90;0.20;;;27.00;99.90;;;;;;5049736;28;20458;-72
2022/07/26 11:54:20;;;;;;;0.70;0.20;;;27.00;99.90;;;;;;5052588;28;20431;-71
2022/07/26 11:56:53;;;;;;;0.70;0.10;;;26.90;99.90;;;;;;5046553;28;20452;-71
2022/07/26 11:59:24;;;;;;;0.70;0.20;;;26.80;99.90;;;;;;5051569;28;20522;-71
2022/07/26 12:01:53;;;;;;;0.70;0.10;;;26.70;99.90;;;;;;5052442;28;20450;-72
2022/07/26 12:04:23;;;;;;;0.70;0.20;;;26.60;99.90;;;;;;5052188;28;20451;-71
2022/07/26 12:06:53;;;;;;;0.70;0.20;;;26.60;99.90;;;;;;5041281;28;21024;-71
2022/07/26 12:09:29;;;;;;;0.70;0.17;;;26.30;99.90;;;;;;5048566;28;20470;-71
2022/07/26 12:11:58;;;;;;;0.70;0.10;;;26.30;99.90;;;;;;5052041;28;20520;-71
2022/07/26 12:14:29;;;;;;;0.70;0.13;;;26.30;99.90;;;;;;5050928;28;20481;-71
2022/07/26 12:16:57;;;;;;;0.70;0.10;;;26.40;99.90;;;;;;5053626;28;20447;-71
2022/07/26 12:19:28;;;;;;;0.70;0.20;;;26.40;99.90;;;;;;5057495;28;20452;-71
2022/07/26 12:22:03;;;;;;;0.70;0.20;;;;;;;;;;5072490;28;20483;-75
2022/07/26 12:24:37;;;;;;;0.70;0.17;;;26.50;99.90;;;;;;5072154;28;20445;-71
2022/07/26 12:27:10;;;;;;;0.70;0.10;;;26.50;99.90;;;;;;5056331;28;20972;-71
2022/07/26 12:29:41;;;;;;;0.70;0.10;;;26.60;99.90;;;;;;5052140;28;20951;-71
2022/07/26 12:32:13;;;;;;;0.70;0.20;;;26.70;99.90;;;;;;5052156;28;20502;-70
2022/07/26 12:34:53;;;;;;;0.70;0.30;;;26.90;99.90;;;;;;5052680;28;20449;-70
2022/07/26 12:37:22;;;;;;;0.70;0.20;;;26.90;99.90;;;;;;5070203;28;20453;-70
2022/07/26 12:40:09;;;;;;;0.70;0.20;;;27.10;99.90;;;;;;5072422;28;20414;-71
2022/07/26 12:42:39;;;;;;;0.70;0.10;;;27.30;99.90;;;;;;5072093;28;20470;-70
2022/07/26 12:45:10;;;;;;;0.70;0.13;;;27.30;99.90;;;;;;5064728;28;20439;-71
2022/07/26 12:47:40;;;;;;;0.70;0.10;;;27.40;99.90;;;;;;5051729;28;20486;-71
2022/07/26 12:50:11;;;;;;;0.70;0.10;;;27.40;99.90;;;;;;5051675;28;20537;-72
2022/07/26 12:52:40;;;;;;;0.70;0.10;;;27.60;99.90;;;;;;5051049;28;20470;-71
2022/07/26 12:55:10;;;;;;;0.70;0.20;;;27.70;99.90;;;;;;5050979;28;20929;-69
2022/07/26 12:57:38;;;;;;;0.77;0.40;;;27.70;99.90;;;;;;5051355;28;20442;-69
2022/07/26 13:00:17;;;;;;;0.70;0.17;;;27.60;99.90;;;;;;5051621;28;20461;-70
2022/07/26 13:02:46;;;;;;;0.70;0.10;;;27.50;99.90;;;;;;5051588;28;20465;-71
2022/07/26 13:05:14;;;;;;;0.70;0.10;;;27.50;99.90;;;;;;5054871;28;20442;-69
2022/07/26 13:07:43;;;;;;;0.70;0.10;;;27.30;99.90;;;;;;5055153;28;20486;-69